Facebook Twitter

Wetterstation Reutte

aktuelles Wetter
 
  Temperatur Wetter Luftdruck Wind
Di, 17:00 Uhr 16.0 °C - 1019.1 hPa 0 km/h km/h
Di, 16:00 Uhr 16.3 °C - 1018.8 hPa 0 km/h km/h
Di, 15:00 Uhr 17.0 °C - 1018.4 hPa 0 km/h km/h
Di, 14:00 Uhr 17.4 °C - 1018.4 hPa 0 km/h km/h
Di, 13:00 Uhr 16.7 °C - 1018.9 hPa 0 km/h km/h
Di, 12:00 Uhr 15.9 °C - 1019.6 hPa 0 km/h km/h
Di, 11:00 Uhr 13.3 °C - 1020.9 hPa 0 km/h km/h
Di, 10:00 Uhr 11.6 °C - 1021.5 hPa 0 km/h km/h
Di, 09:00 Uhr 8.5 °C - 1022.7 hPa 0 km/h km/h
Di, 08:00 Uhr 6.6 °C - 1023.4 hPa 0 km/h km/h
Di, 07:00 Uhr 7.5 °C - 1022.6 hPa 0 km/h km/h
Di, 06:00 Uhr 7.6 °C - 1022.4 hPa 0 km/h km/h
Di, 05:00 Uhr 7.6 °C - 1022.1 hPa 0 km/h km/h
Di, 04:00 Uhr 8.1 °C - 1022 hPa 0 km/h km/h
Di, 03:00 Uhr 7.2 °C - 1022.6 hPa 0 km/h km/h
Di, 02:00 Uhr 7.2 °C - 1022.7 hPa 0 km/h km/h
Di, 01:00 Uhr 7.7 °C - 1022.2 hPa 0 km/h km/h
Di, 00:00 Uhr 7.6 °C - 1022.1 hPa 0 km/h km/h
Mo, 23:00 Uhr 8.6 °C - 1021.6 hPa 0 km/h km/h
Mo, 22:00 Uhr 8.8 °C - 1021.3 hPa 0 km/h km/h

Alle Zeitangaben in Ortszeit (MESZ)